Terminal Aerodrome Forecast
Issued by NWS

Home | Current Version | Previous Version | Text Only | Print | Product List | Glossary On
Versions: 1 2 3 4 5 6 7 8 9 10 11 12 13
000
FTPQ31 PGUM 171727
TAFGUM
TAF

TAF
PTRO 171727Z 1718/1818 06010KT P6SM VCSH SCT016 BKN120
      TEMPO 1720/1723 5SM SHRA OVC016=

USA.gov is the U.S. government's official web portal to all federal, state and local government web resources and services.